<?xml version="1.0" encoding="UTF-8" standalone="no" ?>
<gpx xmlns="http://www.topografix.com/GPX/1/1" xmlns:xsi="http://www.w3.org/2001/XMLSchema-instance" xsi:schemaLocation="http://www.topografix.com/GPX/1/1 http://www.topografix.com/GPX/1/1/gpx.xsd" version="1.1" creator="VisuGPX - https://www.visugpx.com">
  <metadata>
    <name>luzech 6 descentes</name>
    <desc><![CDATA[parcours typé enduro avec de belles descentes]]></desc>
  </metadata>
  <trk>
    <name><![CDATA[2014-04-01-08-18-57]]></name>
    <trkseg>
      <trkpt lat="44.42745" lon="1.3215">
        <ele>287.721</ele>
        <time>2014-04-01T11:28:32Z</time>
      </trkpt>
      <trkpt lat="44.42736" lon="1.32159">
        <ele>289.402</ele>
        <time>2014-04-01T11:28:40Z</time>
      </trkpt>
      <trkpt lat="44.4273" lon="1.32171">
        <ele>290.871</ele>
        <time>2014-04-01T11:28:47Z</time>
      </trkpt>
      <trkpt lat="44.42726" lon="1.32186">
        <ele>291.961</ele>
        <time>2014-04-01T11:28:54Z</time>
      </trkpt>
      <trkpt lat="44.4272" lon="1.32201">
        <ele>293.981</ele>
        <time>2014-04-01T11:29:02Z</time>
      </trkpt>
      <trkpt lat="44.42713" lon="1.32215">
        <ele>295.49</ele>
        <time>2014-04-01T11:29:11Z</time>
      </trkpt>
      <trkpt lat="44.42711" lon="1.3222">
        <ele>295.71</ele>
        <time>2014-04-01T11:29:14Z</time>
      </trkpt>
      <trkpt lat="44.42708" lon="1.3222">
        <ele>296.531</ele>
        <time>2014-04-01T11:29:19Z</time>
      </trkpt>
      <trkpt lat="44.4271" lon="1.3221">
        <ele>297.181</ele>
        <time>2014-04-01T11:29:25Z</time>
      </trkpt>
      <trkpt lat="44.42712" lon="1.32184">
        <ele>299.291</ele>
        <time>2014-04-01T11:29:36Z</time>
      </trkpt>
      <trkpt lat="44.42712" lon="1.32161">
        <ele>300.651</ele>
        <time>2014-04-01T11:29:45Z</time>
      </trkpt>
      <trkpt lat="44.42717" lon="1.32147">
        <ele>300.95</ele>
        <time>2014-04-01T11:29:51Z</time>
      </trkpt>
      <trkpt lat="44.42727" lon="1.3213">
        <ele>301.85</ele>
        <time>2014-04-01T11:29:59Z</time>
      </trkpt>
      <trkpt lat="44.42737" lon="1.32112">
        <ele>303.741</ele>
        <time>2014-04-01T11:30:08Z</time>
      </trkpt>
      <trkpt lat="44.42744" lon="1.32099">
        <ele>305.18</ele>
        <time>2014-04-01T11:30:15Z</time>
      </trkpt>
      <trkpt lat="44.42753" lon="1.32092">
        <ele>306.05</ele>
        <time>2014-04-01T11:30:20Z</time>
      </trkpt>
      <trkpt lat="44.42754" lon="1.32072">
        <ele>307.111</ele>
        <time>2014-04-01T11:30:27Z</time>
      </trkpt>
      <trkpt lat="44.42755" lon="1.32055">
        <ele>307.95</ele>
        <time>2014-04-01T11:30:34Z</time>
      </trkpt>
      <trkpt lat="44.42754" lon="1.32053">
        <ele>308.191</ele>
        <time>2014-04-01T11:30:35Z</time>
      </trkpt>
      <trkpt lat="44.42741" lon="1.32048">
        <ele>309.01</ele>
        <time>2014-04-01T11:30:42Z</time>
      </trkpt>
      <trkpt lat="44.42729" lon="1.32035">
        <ele>310.371</ele>
        <time>2014-04-01T11:30:50Z</time>
      </trkpt>
      <trkpt lat="44.42726" lon="1.32033">
        <ele>311.053</ele>
        <time>2014-04-01T11:30:54Z</time>
      </trkpt>
    </trkseg>
  </trk>
</gpx>